Time;durP1;ratioP1;P1;durP2;ratioP2;P2;SDS_P1;SDS_P2;PMS_P1;PMS_P2;Temp;Humidity;BMP_temperature;BMP_pressure;BME280_temperature;BME280_humidity;BME280_pressure;Samples;Min_cycle;Max_cycle;Signal;HPM_P1;HPM_P2
2021/06/21 00:00:54;;;;;;;8.70;2.20;;;15.90;99.90;;;;;;5008638;28;20525;-57
2021/06/21 00:03:20;;;;;;;8.97;2.63;;;15.90;99.90;;;;;;5020620;28;20533;-57
2021/06/21 00:05:46;;;;;;;10.87;2.20;;;15.80;99.90;;;;;;5024951;28;20179;-56
2021/06/21 00:08:11;;;;;;;5.60;2.13;;;15.80;99.90;;;;;;5007340;28;20641;-57
2021/06/21 00:10:37;;;;;;;15.63;3.00;;;15.90;99.90;;;;;;5020080;28;20207;-57
2021/06/21 00:13:03;;;;;;;5.07;2.80;;;15.90;99.90;;;;;;5022248;28;20203;-56
2021/06/21 00:15:29;;;;;;;7.20;2.67;;;15.90;99.90;;;;;;5026820;28;20203;-57
2021/06/21 00:17:55;;;;;;;7.93;2.23;;;15.90;99.90;;;;;;5009837;28;20207;-58
2021/06/21 00:20:22;;;;;;;15.37;3.03;;;15.90;99.90;;;;;;5025197;28;20191;-57
2021/06/21 00:22:49;;;;;;;11.30;3.10;;;16.00;99.90;;;;;;5009182;28;20530;-58
2021/06/21 00:25:16;;;;;;;10.63;2.63;;;16.00;99.90;;;;;;5024959;28;20556;-57
2021/06/21 00:27:42;;;;;;;7.30;2.27;;;16.00;99.90;;;;;;5018844;28;20928;-57
2021/06/21 00:30:10;;;;;;;5.90;2.43;;;16.00;99.90;;;;;;5015415;28;20434;-58
2021/06/21 00:32:38;;;;;;;5.53;2.67;;;15.90;99.90;;;;;;5023486;28;20588;-58
2021/06/21 00:35:04;;;;;;;14.40;2.53;;;15.90;99.90;;;;;;5026743;28;20781;-56
2021/06/21 00:37:30;;;;;;;6.10;2.50;;;15.90;99.90;;;;;;5008898;28;20851;-57
2021/06/21 00:39:56;;;;;;;7.27;2.40;;;15.80;99.90;;;;;;5020138;28;20438;-58
2021/06/21 00:42:21;;;;;;;10.57;3.10;;;15.80;99.90;;;;;;5009618;28;20585;-57
2021/06/21 00:44:47;;;;;;;14.00;3.80;;;15.80;99.90;;;;;;5026569;28;20207;-58
2021/06/21 00:47:13;;;;;;;7.53;3.10;;;15.70;99.90;;;;;;5026149;28;20262;-58
2021/06/21 00:49:44;;;;;;;7.37;3.33;;;15.70;99.90;;;;;;5023851;28;20589;-57
2021/06/21 00:52:15;;;;;;;13.07;3.50;;;15.70;99.90;;;;;;5026556;28;20435;-57
2021/06/21 00:54:42;;;;;;;17.67;5.73;;;15.70;99.90;;;;;;5025827;28;20457;-58
2021/06/21 00:57:08;;;;;;;22.13;6.10;;;15.70;99.90;;;;;;5024711;28;21053;-57
2021/06/21 00:59:34;;;;;;;16.20;4.70;;;15.60;99.90;;;;;;5014820;28;20449;-58
2021/06/21 01:02:00;;;;;;;7.63;3.80;;;15.60;99.90;;;;;;5023565;28;20446;-57
2021/06/21 01:04:25;;;;;;;8.17;3.63;;;15.60;99.90;;;;;;5023208;28;20212;-58
2021/06/21 01:06:51;;;;;;;7.20;3.33;;;15.60;99.90;;;;;;5024039;28;20447;-57
2021/06/21 01:09:17;;;;;;;13.33;3.20;;;15.60;99.90;;;;;;5025752;28;20629;-58
2021/06/21 01:11:57;;;;;;;10.47;3.63;;;15.50;99.90;;;;;;5022006;28;20609;-56
2021/06/21 01:14:37;;;;;;;8.50;2.67;;;15.50;99.90;;;;;;5032349;28;20837;-57
2021/06/21 01:17:08;;;;;;;4.87;2.33;;;15.50;99.90;;;;;;5010273;28;20516;-57
2021/06/21 01:19:57;;;;;;;9.30;2.93;;;15.50;99.90;;;;;;5024980;28;20443;-57
2021/06/21 01:22:51;;;;;;;10.80;3.30;;;15.50;99.90;;;;;;5022081;28;20434;-58
2021/06/21 01:25:43;;;;;;;6.73;3.60;;;15.50;99.90;;;;;;5012304;28;21058;-56
2021/06/21 01:28:40;;;;;;;7.10;3.73;;;15.50;99.90;;;;;;5024329;28;20427;-55
2021/06/21 01:31:12;;;;;;;9.00;4.70;;;15.50;99.90;;;;;;5018574;28;20435;-58
2021/06/21 01:33:39;;;;;;;18.00;5.20;;;15.60;99.90;;;;;;5025435;28;21072;-56
2021/06/21 01:36:08;;;;;;;7.73;3.97;;;15.50;99.90;;;;;;5026410;28;20434;-58
2021/06/21 01:38:44;;;;;;;16.33;4.43;;;15.60;99.90;;;;;;5008936;28;20489;-58
2021/06/21 01:41:17;;;;;;;7.40;3.53;;;15.50;99.90;;;;;;5018891;28;20438;-57
2021/06/21 01:43:46;;;;;;;16.70;4.00;;;15.60;99.90;;;;;;5023149;28;20462;-58
2021/06/21 01:46:16;;;;;;;11.13;3.63;;;15.60;99.90;;;;;;5024539;28;20756;-58
2021/06/21 01:48:54;;;;;;;17.53;3.47;;;15.60;99.90;;;;;;5025244;28;20442;-58
2021/06/21 01:51:23;;;;;;;7.97;2.53;;;15.60;99.90;;;;;;5023954;28;20426;-57
2021/06/21 01:53:51;;;;;;;7.17;3.17;;;15.60;99.90;;;;;;5026727;28;20458;-57
2021/06/21 01:56:24;;;;;;;5.77;2.97;;;15.60;99.90;;;;;;5022792;28;20565;-57
2021/06/21 01:58:53;;;;;;;12.63;3.50;;;15.60;99.90;;;;;;5017787;28;20430;-58
2021/06/21 02:01:20;;;;;;;10.17;3.27;;;15.60;99.90;;;;;;5023331;28;20437;-57
2021/06/21 02:03:52;;;;;;;7.43;2.80;;;15.60;99.90;;;;;;5023821;28;20532;-57
2021/06/21 02:06:19;;;;;;;7.53;2.80;;;15.60;99.90;;;;;;5006444;28;20463;-57
2021/06/21 02:08:48;;;;;;;3.90;3.17;;;15.60;99.90;;;;;;5001808;28;20466;-57
2021/06/21 02:11:15;;;;;;;8.17;3.00;;;15.60;99.90;;;;;;5017948;28;20517;-58
2021/06/21 02:13:42;;;;;;;9.90;3.50;;;15.60;99.90;;;;;;5024041;28;20469;-57
2021/06/21 02:16:08;;;;;;;9.30;3.00;;;15.60;99.90;;;;;;5001425;28;20443;-57
2021/06/21 02:18:35;;;;;;;12.13;3.13;;;15.60;99.90;;;;;;5010233;28;20447;-58
2021/06/21 02:21:02;;;;;;;10.37;3.10;;;15.50;99.90;;;;;;5008645;28;20924;-57
2021/06/21 02:23:28;;;;;;;10.60;3.37;;;15.50;99.90;;;;;;5022871;28;20452;-57
2021/06/21 02:25:57;;;;;;;9.03;3.00;;;15.50;99.90;;;;;;5023044;28;20445;-58
2021/06/21 02:28:23;;;;;;;9.50;3.90;;;15.50;99.90;;;;;;5011616;28;20540;-56
2021/06/21 02:30:50;;;;;;;13.97;3.77;;;15.50;99.90;;;;;;5011759;28;20446;-57
2021/06/21 02:33:17;;;;;;;13.00;4.50;;;15.50;99.90;;;;;;5024086;28;20437;-56
2021/06/21 02:35:44;;;;;;;7.37;3.80;;;15.60;99.90;;;;;;5049312;22;20478;-60
2021/06/21 02:38:10;;;;;;;4.80;2.73;;;15.60;99.90;;;;;;5027018;28;20464;-60
2021/06/21 02:40:36;;;;;;;9.27;3.40;;;15.60;99.90;;;;;;5025790;28;20458;-61
2021/06/21 02:43:02;;;;;;;12.10;4.10;;;15.50;99.90;;;;;;5010237;28;20183;-60
2021/06/21 02:45:29;;;;;;;11.20;4.13;;;15.50;99.90;;;;;;5010257;28;20207;-60
2021/06/21 02:47:55;;;;;;;8.63;3.87;;;15.50;99.90;;;;;;5019849;28;20428;-60
2021/06/21 02:50:22;;;;;;;7.97;4.30;;;15.50;99.90;;;;;;5023836;28;20516;-60
2021/06/21 02:53:08;;;;;;;8.23;4.30;;;15.40;99.90;;;;;;5024244;28;20427;-60
2021/06/21 02:56:04;;;;;;;13.00;4.50;;;15.40;99.90;;;;;;5011599;28;20523;-60
2021/06/21 02:58:37;;;;;;;10.07;3.80;;;15.40;99.90;;;;;;5023415;28;20813;-59
2021/06/21 03:01:05;;;;;;;14.10;3.73;;;15.40;99.90;;;;;;5010732;28;20406;-61
2021/06/21 03:03:36;;;;;;;10.23;4.93;;;15.40;99.90;;;;;;5027066;28;20462;-60
2021/06/21 03:06:03;;;;;;;10.33;3.83;;;15.40;99.90;;;;;;5018601;28;20470;-60
2021/06/21 03:08:29;;;;;;;14.20;5.47;;;15.40;99.90;;;;;;5021310;28;20427;-61
2021/06/21 03:10:56;;;;;;;11.40;4.33;;;15.40;99.90;;;;;;5025306;28;20798;-61
2021/06/21 03:13:22;;;;;;;12.50;4.00;;;15.30;99.90;;;;;;5007454;28;20450;-61
2021/06/21 03:15:53;;;;;;;7.50;3.83;;;15.30;99.90;;;;;;5009461;28;20967;-60
2021/06/21 03:18:20;;;;;;;10.40;3.40;;;15.30;99.90;;;;;;5029131;28;20772;-61
2021/06/21 03:20:57;;;;;;;7.23;3.87;;;15.30;99.90;;;;;;5025384;28;20438;-60
2021/06/21 03:23:25;;;;;;;13.23;3.27;;;15.30;99.90;;;;;;5026848;28;20422;-60
2021/06/21 03:25:56;;;;;;;10.70;3.50;;;15.20;99.90;;;;;;5023089;28;20485;-60
2021/06/21 03:28:23;;;;;;;6.30;4.17;;;15.20;99.90;;;;;;5009928;28;20441;-60
2021/06/21 03:30:55;;;;;;;13.03;5.17;;;15.20;99.90;;;;;;5021981;28;20799;-60
2021/06/21 03:33:22;;;;;;;12.87;4.60;;;15.20;99.90;;;;;;5021943;28;20419;-60
2021/06/21 03:35:48;;;;;;;6.70;4.23;;;15.20;99.90;;;;;;5009846;28;20494;-61
2021/06/21 03:38:19;;;;;;;9.50;5.23;;;15.20;99.90;;;;;;5028193;28;20422;-61
2021/06/21 03:40:46;;;;;;;14.83;5.30;;;15.20;99.90;;;;;;5024442;28;20438;-61
2021/06/21 03:43:13;;;;;;;15.77;5.70;;;15.30;99.90;;;;;;5023061;28;20431;-61
2021/06/21 03:45:40;;;;;;;15.33;5.40;;;15.30;99.90;;;;;;5015751;28;20442;-59
2021/06/21 03:48:06;;;;;;;9.70;5.13;;;15.30;99.90;;;;;;5027219;28;20480;-60
2021/06/21 03:50:33;;;;;;;18.70;5.47;;;15.40;99.90;;;;;;5018869;28;20521;-61
2021/06/21 03:52:58;;;;;;;10.30;4.63;;;15.40;99.90;;;;;;5020227;28;20434;-60
2021/06/21 03:55:24;;;;;;;11.37;4.93;;;15.40;99.90;;;;;;5004652;28;20473;-61
2021/06/21 03:57:51;;;;;;;17.47;4.33;;;15.50;99.90;;;;;;5019085;28;20399;-61
2021/06/21 04:00:22;;;;;;;8.10;4.17;;;15.50;99.90;;;;;;4998678;28;20196;-61
2021/06/21 04:02:48;;;;;;;16.53;4.87;;;15.50;99.90;;;;;;4999819;28;22443;-60
2021/06/21 04:05:14;;;;;;;9.67;3.77;;;15.50;99.90;;;;;;5020239;28;20541;-61
2021/06/21 04:07:41;;;;;;;17.63;3.80;;;15.50;99.90;;;;;;5023678;28;20461;-61
2021/06/21 04:10:09;;;;;;;9.10;4.53;;;15.60;99.90;;;;;;5008054;28;20529;-62
2021/06/21 04:12:36;;;;;;;12.83;4.30;;;15.60;99.90;;;;;;5021892;28;20481;-62
2021/06/21 04:15:04;;;;;;;12.40;3.57;;;15.60;99.90;;;;;;5020912;28;20439;-63
2021/06/21 04:17:30;;;;;;;6.43;3.03;;;15.60;99.90;;;;;;5019319;28;20800;-61
2021/06/21 04:19:55;;;;;;;14.73;3.90;;;15.60;99.90;;;;;;5022539;28;20438;-62
2021/06/21 04:22:21;;;;;;;14.87;3.77;;;15.50;99.90;;;;;;5002959;28;20172;-61
2021/06/21 04:24:46;;;;;;;8.00;3.90;;;15.50;99.90;;;;;;5004684;28;20324;-62
2021/06/21 04:27:13;;;;;;;9.93;3.80;;;15.60;99.90;;;;;;5021053;28;20176;-61
2021/06/21 04:29:39;;;;;;;10.53;3.63;;;15.60;99.90;;;;;;5020146;28;20254;-60
2021/06/21 04:32:05;;;;;;;7.93;3.77;;;15.60;99.90;;;;;;5015810;28;20427;-59
2021/06/21 04:34:31;;;;;;;11.23;4.80;;;15.60;99.90;;;;;;5018556;28;20461;-59
2021/06/21 04:36:57;;;;;;;13.80;3.70;;;15.70;99.90;;;;;;5022199;28;20445;-62
2021/06/21 04:39:22;;;;;;;13.57;4.97;;;15.70;99.90;;;;;;5022359;28;20649;-60
2021/06/21 04:41:49;;;;;;;12.77;3.70;;;15.80;99.90;;;;;;5018562;28;20184;-60
2021/06/21 04:44:15;;;;;;;11.30;3.90;;;15.80;99.90;;;;;;5014394;28;20214;-59
2021/06/21 04:46:40;;;;;;;10.83;3.80;;;15.80;99.90;;;;;;5024031;28;20432;-61
2021/06/21 04:49:11;;;;;;;10.23;5.20;;;15.80;99.90;;;;;;5023539;28;20287;-61
2021/06/21 04:51:39;;;;;;;12.77;4.53;;;15.90;99.90;;;;;;5002305;28;20570;-62
2021/06/21 04:54:05;;;;;;;7.30;4.20;;;15.90;99.90;;;;;;5019483;28;20867;-62
2021/06/21 04:56:33;;;;;;;9.93;4.07;;;16.00;99.90;;;;;;5005182;28;20520;-62
2021/06/21 04:58:58;;;;;;;11.90;4.23;;;16.00;99.90;;;;;;5022924;28;20573;-62
2021/06/21 05:01:24;;;;;;;13.53;3.80;;;16.00;99.90;;;;;;5003491;28;20669;-61
2021/06/21 05:03:50;;;;;;;10.63;3.70;;;16.20;99.90;;;;;;5015723;28;20673;-63
2021/06/21 05:06:16;;;;;;;14.00;3.80;;;16.20;99.90;;;;;;5006059;28;20638;-60
2021/06/21 05:08:41;;;;;;;9.10;3.97;;;16.30;99.90;;;;;;5010665;28;20176;-62
2021/06/21 05:11:07;;;;;;;13.80;4.40;;;16.40;99.90;;;;;;5020992;28;20198;-64
2021/06/21 05:13:33;;;;;;;12.90;4.83;;;16.50;99.90;;;;;;5028565;28;20183;-62
2021/06/21 05:15:58;;;;;;;16.70;4.97;;;16.60;99.90;;;;;;5010302;28;20206;-61
2021/06/21 05:18:24;;;;;;;11.57;4.97;;;16.60;99.90;;;;;;5021063;28;20596;-62
2021/06/21 05:20:49;;;;;;;17.30;4.33;;;16.70;99.90;;;;;;5022879;28;20188;-62
2021/06/21 05:23:15;;;;;;;10.80;5.40;;;16.70;99.90;;;;;;5028379;28;20180;-61
2021/06/21 05:25:41;;;;;;;15.77;5.80;;;16.60;99.90;;;;;;5024725;28;20576;-62
2021/06/21 05:28:07;;;;;;;19.33;4.93;;;16.50;99.90;;;;;;5027888;28;20272;-59
2021/06/21 05:30:32;;;;;;;21.07;5.50;;;16.50;99.90;;;;;;5024638;28;20176;-61
2021/06/21 05:32:58;;;;;;;12.60;4.57;;;16.50;99.90;;;;;;5011122;28;20240;-64
2021/06/21 05:35:24;;;;;;;12.53;4.70;;;16.50;99.90;;;;;;5027177;28;20562;-62
2021/06/21 05:37:50;;;;;;;8.20;3.10;;;16.50;99.90;;;;;;5009542;28;20182;-61
2021/06/21 05:40:16;;;;;;;5.47;3.00;;;16.50;99.90;;;;;;5025913;28;20188;-63
2021/06/21 05:42:43;;;;;;;12.03;4.53;;;16.60;99.90;;;;;;5010182;28;20426;-61
2021/06/21 05:45:09;;;;;;;9.57;3.50;;;16.60;99.90;;;;;;5029124;28;20458;-62
2021/06/21 05:47:35;;;;;;;7.07;3.23;;;16.70;99.90;;;;;;5028106;28;20465;-63
2021/06/21 05:50:00;;;;;;;13.23;3.40;;;16.70;99.90;;;;;;5026095;28;20470;-62
2021/06/21 05:52:26;;;;;;;12.70;3.67;;;16.80;99.90;;;;;;5021134;28;20176;-62
2021/06/21 05:54:58;;;;;;;12.47;3.93;;;16.80;99.90;;;;;;5028597;28;20212;-61
2021/06/21 05:57:28;;;;;;;9.03;3.80;;;16.70;99.90;;;;;;5025770;28;20171;-60
2021/06/21 05:59:53;;;;;;;11.10;4.37;;;16.70;99.90;;;;;;5019229;28;21371;-62
2021/06/21 06:02:19;;;;;;;14.57;4.17;;;16.70;99.90;;;;;;5026446;28;20431;-63
2021/06/21 06:04:45;;;;;;;12.50;4.20;;;16.80;99.90;;;;;;5025713;28;20723;-62
2021/06/21 06:07:10;;;;;;;13.00;3.93;;;16.80;99.90;;;;;;5028245;28;20176;-61
2021/06/21 06:09:37;;;;;;;10.17;4.40;;;17.00;99.90;;;;;;5009806;28;20183;-63
2021/06/21 06:12:03;;;;;;;9.40;4.40;;;17.30;99.90;;;;;;5026832;28;20179;-62
2021/06/21 06:14:28;;;;;;;9.83;4.30;;;17.40;99.90;;;;;;5025134;28;20438;-62
2021/06/21 06:16:54;;;;;;;16.10;4.27;;;17.60;99.90;;;;;;5010163;28;21122;-61
2021/06/21 06:19:21;;;;;;;14.13;3.77;;;17.80;99.90;;;;;;5028603;28;20194;-62
2021/06/21 06:21:47;;;;;;;13.13;3.87;;;18.00;99.90;;;;;;5022217;28;20436;-62
2021/06/21 06:24:13;;;;;;;13.33;3.77;;;18.10;99.90;;;;;;5025722;28;21365;-62
2021/06/21 06:26:43;;;;;;;9.53;4.07;;;18.10;99.90;;;;;;5022781;28;20175;-62
2021/06/21 06:29:13;;;;;;;5.70;3.03;;;18.10;99.90;;;;;;5026436;28;20438;-62
2021/06/21 06:31:41;;;;;;;9.90;4.00;;;18.10;99.90;;;;;;5023877;28;20423;-62
2021/06/21 06:34:07;;;;;;;14.30;3.83;;;18.10;99.90;;;;;;5011113;28;20714;-61
2021/06/21 06:36:33;;;;;;;7.17;3.70;;;18.10;99.90;;;;;;5010267;28;20420;-61
2021/06/21 06:38:59;;;;;;;12.40;3.77;;;18.10;99.90;;;;;;5026574;28;20184;-61
2021/06/21 06:41:25;;;;;;;8.83;3.47;;;18.20;99.90;;;;;;5022732;28;20604;-62
2021/06/21 06:43:52;;;;;;;14.00;4.70;;;18.30;99.90;;;;;;5024626;28;20366;-62
2021/06/21 06:46:17;;;;;;;7.93;4.30;;;18.30;99.90;;;;;;5020577;28;20270;-62
2021/06/21 06:48:43;;;;;;;15.80;4.93;;;18.50;99.90;;;;;;5020220;28;20579;-62
2021/06/21 06:51:09;;;;;;;17.80;4.77;;;18.60;99.90;;;;;;5015424;28;20171;-62
2021/06/21 06:53:44;;;;;;;10.67;4.17;;;18.80;99.90;;;;;;5022895;28;20810;-61
2021/06/21 06:58:56;;;;;;;9.43;3.70;;;18.90;99.90;;;;;;5021544;28;20450;-61
2021/06/21 07:01:22;;;;;;;9.97;3.90;;;19.00;99.90;;;;;;5013750;28;20968;-62
2021/06/21 07:03:50;;;;;;;8.83;2.90;;;19.10;99.90;;;;;;5020809;28;20978;-60
2021/06/21 07:06:16;;;;;;;6.60;2.40;;;19.10;99.90;;;;;;5022055;28;20426;-59
2021/06/21 07:08:42;;;;;;;11.77;2.60;;;19.10;98.70;;;;;;5024960;28;20414;-60
2021/06/21 07:11:08;;;;;;;5.60;2.13;;;19.10;99.90;;;;;;5025163;28;20929;-60
2021/06/21 07:13:33;;;;;;;4.17;1.87;;;19.30;99.90;;;;;;5022519;28;20176;-60
2021/06/21 07:15:59;;;;;;;4.60;1.97;;;19.40;99.90;;;;;;5024779;28;20207;-59
2021/06/21 07:18:24;;;;;;;5.00;1.73;;;19.50;99.90;;;;;;5012528;28;20259;-60
2021/06/21 07:20:50;;;;;;;6.40;2.50;;;19.60;99.00;;;;;;5020320;28;20641;-61
2021/06/21 07:23:16;;;;;;;13.40;1.97;;;19.80;97.70;;;;;;5027018;28;20171;-59
2021/06/21 07:25:41;;;;;;;13.03;1.97;;;19.80;97.00;;;;;;5025070;28;20242;-59
2021/06/21 07:28:07;;;;;;;7.57;1.80;;;19.90;94.40;;;;;;5017494;28;20211;-59
2021/06/21 07:30:34;;;;;;;5.80;2.10;;;19.80;94.10;;;;;;5025335;28;20175;-60
2021/06/21 07:32:59;;;;;;;5.77;2.07;;;19.80;95.90;;;;;;5023534;28;20207;-60
2021/06/21 07:35:25;;;;;;;9.80;2.03;;;19.80;96.90;;;;;;5015858;28;20577;-60
2021/06/21 07:37:51;;;;;;;7.07;2.80;;;19.90;96.90;;;;;;5025760;28;20187;-59
2021/06/21 07:40:16;;;;;;;8.00;2.70;;;20.00;97.70;;;;;;5006499;28;20191;-61
2021/06/21 07:42:42;;;;;;;4.10;2.07;;;20.10;96.50;;;;;;5026794;28;20325;-61
2021/06/21 07:45:08;;;;;;;4.87;1.90;;;20.10;95.90;;;;;;5023924;28;20226;-62
2021/06/21 07:47:34;;;;;;;13.73;2.07;;;20.20;94.90;;;;;;5025475;28;20191;-62
2021/06/21 07:49:59;;;;;;;7.80;2.67;;;20.20;96.90;;;;;;5029264;28;20537;-63
2021/06/21 07:52:25;;;;;;;7.83;2.50;;;20.30;95.50;;;;;;5028138;28;20632;-61
2021/06/21 07:54:51;;;;;;;8.37;2.00;;;20.30;94.70;;;;;;5027475;28;20286;-61
2021/06/21 07:57:16;;;;;;;4.03;2.30;;;20.30;95.60;;;;;;5027425;28;20179;-61
2021/06/21 07:59:42;;;;;;;7.03;2.50;;;20.40;95.60;;;;;;5028806;28;20198;-61
2021/06/21 08:02:09;;;;;;;3.10;2.07;;;20.50;94.90;;;;;;5022492;28;20175;-64
2021/06/21 08:04:35;;;;;;;11.87;3.17;;;20.60;95.60;;;;;;5023642;28;20215;-61
2021/06/21 08:07:00;;;;;;;7.57;3.27;;;20.80;95.90;;;;;;5029323;28;20430;-63
2021/06/21 08:09:26;;;;;;;6.20;2.10;;;20.80;94.20;;;;;;5029468;28;20572;-61
2021/06/21 08:11:51;;;;;;;5.80;2.03;;;20.90;94.90;;;;;;5009731;28;20184;-61
2021/06/21 08:14:17;;;;;;;5.90;2.27;;;20.80;92.80;;;;;;5026342;28;20246;-62
2021/06/21 08:16:43;;;;;;;6.83;2.40;;;20.70;94.40;;;;;;5029420;28;20215;-63
2021/06/21 08:19:08;;;;;;;7.20;2.90;;;20.70;93.70;;;;;;5028751;28;20259;-62
2021/06/21 08:21:34;;;;;;;7.00;1.90;;;20.70;92.80;;;;;;5018610;28;20433;-63
2021/06/21 08:24:00;;;;;;;4.03;2.00;;;20.70;91.70;;;;;;5023453;28;20206;-62
2021/06/21 08:26:25;;;;;;;6.63;2.03;;;20.80;90.30;;;;;;5025786;28;20179;-62
2021/06/21 08:28:51;;;;;;;7.00;2.30;;;20.80;88.10;;;;;;5015276;28;20186;-64
2021/06/21 08:31:17;;;;;;;7.43;2.20;;;20.80;91.10;;;;;;5028100;28;20266;-63
2021/06/21 08:33:43;;;;;;;18.13;2.00;;;20.90;90.70;;;;;;5009131;28;20857;-62
2021/06/21 08:36:09;;;;;;;14.73;2.17;;;21.10;91.00;;;;;;5023877;28;20262;-62
2021/06/21 08:38:35;;;;;;;4.17;1.60;;;21.20;90.30;;;;;;5028258;28;20175;-64
2021/06/21 08:41:05;;;;;;;3.97;1.90;;;21.30;85.20;;;;;;5025435;28;20936;-61
2021/06/21 08:43:32;;;;;;;7.10;1.97;;;21.20;80.10;;;;;;5021896;28;20509;-63
2021/06/21 08:45:57;;;;;;;3.73;1.60;;;21.20;84.20;;;;;;5021928;28;20458;-64
2021/06/21 08:48:29;;;;;;;6.90;1.93;;;21.20;83.60;;;;;;5028442;28;20427;-62
2021/06/21 08:50:55;;;;;;;3.17;1.83;;;21.30;84.50;;;;;;5026119;28;20174;-62
2021/06/21 08:53:21;;;;;;;3.40;1.57;;;21.50;82.30;;;;;;5030199;28;20409;-62
2021/06/21 08:55:49;;;;;;;3.67;1.63;;;21.60;84.20;;;;;;5024201;28;20454;-62
2021/06/21 08:58:15;;;;;;;11.27;2.30;;;21.80;83.00;;;;;;5028127;28;20259;-62
2021/06/21 09:00:40;;;;;;;6.63;1.90;;;22.00;74.30;;;;;;5027981;28;20877;-62
2021/06/21 09:03:06;;;;;;;3.70;1.90;;;22.30;75.40;;;;;;5028272;28;20266;-63
2021/06/21 09:05:34;;;;;;;3.00;1.50;;;22.40;71.20;;;;;;5024465;28;20257;-64
2021/06/21 09:08:05;;;;;;;3.50;1.80;;;22.50;65.10;;;;;;5028479;28;20218;-62
2021/06/21 09:10:33;;;;;;;9.33;2.47;;;22.50;64.80;;;;;;5027317;28;20430;-62
2021/06/21 09:13:12;;;;;;;3.80;1.70;;;22.50;64.90;;;;;;5026437;28;20477;-62
2021/06/21 09:15:58;;;;;;;5.03;1.90;;;22.40;63.80;;;;;;5010549;28;20423;-62
2021/06/21 09:18:33;;;;;;;6.80;2.10;;;22.40;65.50;;;;;;5026002;28;20438;-63
2021/06/21 09:21:26;;;;;;;7.97;2.43;;;22.50;67.10;;;;;;5024035;28;20842;-62
2021/06/21 09:23:57;;;;;;;9.23;2.00;;;22.60;68.50;;;;;;5012455;28;20621;-62
2021/06/21 09:26:51;;;;;;;5.10;1.97;;;22.80;69.90;;;;;;5011375;28;21101;-63
2021/06/21 09:29:30;;;;;;;3.30;1.70;;;23.00;62.40;;;;;;5028304;28;20438;-62
2021/06/21 09:31:57;;;;;;;4.20;2.17;;;23.00;62.60;;;;;;5013802;28;20434;-62
2021/06/21 09:34:26;;;;;;;6.10;2.30;;;23.20;61.60;;;;;;5028109;28;20462;-63
2021/06/21 09:36:54;;;;;;;4.60;2.00;;;23.30;60.30;;;;;;5026408;28;20427;-63
2021/06/21 09:39:32;;;;;;;2.73;1.40;;;23.20;57.00;;;;;;5015992;28;20801;-63
2021/06/21 09:42:09;;;;;;;6.30;1.70;;;23.20;58.40;;;;;;5019494;28;20970;-62
2021/06/21 09:44:52;;;;;;;6.00;2.20;;;23.30;59.20;;;;;;5027799;28;20523;-62
2021/06/21 09:47:21;;;;;;;6.30;1.87;;;23.50;60.40;;;;;;5017847;28;20942;-65
2021/06/21 09:50:20;;;;;;;6.10;2.00;;;23.70;59.60;;;;;;5019333;28;20959;-62
2021/06/21 09:53:00;;;;;;;2.40;1.60;;;23.80;58.00;;;;;;5010084;28;20438;-62
2021/06/21 09:55:40;;;;;;;5.30;1.63;;;23.90;58.00;;;;;;5007410;28;20498;-62
2021/06/21 09:58:10;;;;;;;2.90;1.50;;;24.10;59.20;;;;;;5029134;28;20433;-62
2021/06/21 10:00:42;;;;;;;2.97;1.43;;;24.20;60.30;;;;;;5007843;28;20443;-61
2021/06/21 10:03:16;;;;;;;3.40;2.00;;;24.40;59.10;;;;;;5019476;28;20949;-62
2021/06/21 10:05:45;;;;;;;3.67;1.63;;;24.50;56.20;;;;;;5020209;28;20478;-62
2021/06/21 10:08:15;;;;;;;5.03;2.67;;;24.40;55.80;;;;;;5017091;28;20477;-61
2021/06/21 10:10:42;;;;;;;3.53;1.73;;;24.40;58.10;;;;;;5019862;28;20541;-62
2021/06/21 10:13:08;;;;;;;4.53;2.40;;;24.50;58.00;;;;;;5012910;28;20427;-61
2021/06/21 10:15:35;;;;;;;10.87;2.53;;;24.50;58.20;;;;;;5019107;28;20445;-61
2021/06/21 10:18:02;;;;;;;3.27;1.97;;;24.50;58.60;;;;;;5026241;28;20419;-62
2021/06/21 10:20:28;;;;;;;3.97;1.60;;;24.50;57.60;;;;;;5021046;28;20434;-63
2021/06/21 10:22:56;;;;;;;4.97;1.90;;;24.60;58.60;;;;;;5023156;28;20464;-62
2021/06/21 10:25:22;;;;;;;7.23;2.10;;;24.70;56.80;;;;;;5016611;28;20222;-61
2021/06/21 10:27:48;;;;;;;4.40;1.80;;;24.70;56.30;;;;;;5025865;28;20439;-62
2021/06/21 10:30:17;;;;;;;4.63;2.13;;;24.90;56.50;;;;;;5020833;28;20179;-62
2021/06/21 10:32:43;;;;;;;7.17;1.90;;;25.20;57.20;;;;;;5026469;28;20184;-62
2021/06/21 10:35:12;;;;;;;1.80;1.70;;;25.40;55.90;;;;;;5023353;28;20520;-62
2021/06/21 10:37:39;;;;;;;5.07;2.00;;;25.60;55.20;;;;;;5026075;28;20241;-62
2021/06/21 10:40:09;;;;;;;5.97;2.00;;;25.80;54.50;;;;;;5025852;28;20426;-62
2021/06/21 10:42:42;;;;;;;4.20;2.00;;;25.90;53.60;;;;;;5019963;28;20616;-60
2021/06/21 10:45:16;;;;;;;7.80;2.07;;;26.10;53.90;;;;;;5027082;28;20477;-61
2021/06/21 10:47:43;;;;;;;6.00;2.03;;;26.10;53.80;;;;;;5030109;28;20425;-61
2021/06/21 10:50:20;;;;;;;9.00;1.63;;;26.20;54.60;;;;;;5027758;28;20430;-60
2021/06/21 10:52:48;;;;;;;6.83;1.80;;;26.40;54.00;;;;;;5027460;28;20433;-60
2021/06/21 10:57:56;;;;;;;4.77;1.73;;;26.70;53.30;;;;;;5019906;28;20454;-58
2021/06/21 11:00:29;;;;;;;3.77;2.20;;;26.80;53.30;;;;;;5017144;28;20782;-62
2021/06/21 11:02:55;;;;;;;4.23;2.00;;;26.90;51.70;;;;;;5000284;28;20431;-62
2021/06/21 11:05:37;;;;;;;5.03;1.93;;;26.90;50.50;;;;;;4999382;28;20485;-62
2021/06/21 11:08:15;;;;;;;12.03;1.70;;;26.90;51.10;;;;;;5008131;28;20195;-62
2021/06/21 11:10:42;;;;;;;6.03;1.80;;;27.00;52.20;;;;;;5025830;28;21032;-61
2021/06/21 11:13:26;;;;;;;8.43;2.10;;;27.20;53.00;;;;;;5030854;28;20418;-62
2021/06/21 11:18:43;;;;;;;3.57;1.93;;;27.60;52.00;;;;;;5030427;28;20950;-61
2021/06/21 11:21:27;;;;;;;6.27;1.80;;;27.70;51.10;;;;;;5030769;28;20529;-61
2021/06/21 11:23:54;;;;;;;6.20;1.40;;;27.70;48.50;;;;;;5026356;28;20561;-62
2021/06/21 11:26:20;;;;;;;5.20;1.67;;;27.60;48.20;;;;;;5028956;28;21340;-63
2021/06/21 11:28:48;;;;;;;9.10;2.33;;;27.40;48.10;;;;;;5021513;28;20633;-61
2021/06/21 11:31:20;;;;;;;2.80;1.87;;;27.40;49.50;;;;;;5024927;28;20191;-62
2021/06/21 11:34:06;;;;;;;5.70;2.10;;;27.40;48.90;;;;;;5028903;28;20422;-62
2021/06/21 11:36:39;;;;;;;4.80;2.00;;;27.50;50.70;;;;;;5026175;28;20433;-62
2021/06/21 11:39:23;;;;;;;4.50;1.60;;;27.60;49.20;;;;;;5030537;28;20501;-61
2021/06/21 11:42:08;;;;;;;1.90;1.70;;;27.70;47.90;;;;;;5027011;28;20432;-62
2021/06/21 11:44:36;;;;;;;2.50;1.70;;;27.80;49.10;;;;;;5026677;28;20469;-63
2021/06/21 11:47:23;;;;;;;5.77;1.90;;;27.90;49.60;;;;;;5029703;28;20521;-62
2021/06/21 11:49:51;;;;;;;6.77;1.80;;;28.10;49.00;;;;;;5015355;28;20425;-62
2021/06/21 11:52:20;;;;;;;3.83;1.90;;;28.30;47.30;;;;;;5026956;28;20426;-62
2021/06/21 11:54:46;;;;;;;3.20;1.50;;;28.40;48.50;;;;;;5024424;28;20268;-62
2021/06/21 11:57:13;;;;;;;5.90;2.07;;;28.60;48.90;;;;;;5029024;28;20206;-62
2021/06/21 11:59:43;;;;;;;3.60;1.53;;;28.80;49.10;;;;;;5022249;28;20172;-63
2021/06/21 12:02:08;;;;;;;6.63;1.97;;;28.80;46.60;;;;;;5024648;28;20187;-62
2021/06/21 12:04:34;;;;;;;3.93;1.60;;;28.70;46.10;;;;;;5022135;28;20215;-62
2021/06/21 12:07:00;;;;;;;3.73;1.47;;;28.70;47.50;;;;;;5029948;28;20172;-62
2021/06/21 12:09:28;;;;;;;8.73;1.50;;;28.90;49.20;;;;;;4994670;28;20179;-63
2021/06/21 12:11:54;;;;;;;2.57;1.40;;;29.10;49.70;;;;;;5009719;28;20832;-63
2021/06/21 12:14:25;;;;;;;2.00;1.33;;;29.30;49.70;;;;;;5026444;28;20199;-63
2021/06/21 12:17:03;;;;;;;2.43;1.83;;;29.50;47.60;;;;;;5022982;28;20180;-63
2021/06/21 12:19:29;;;;;;;4.70;1.70;;;29.60;47.60;;;;;;5027245;28;20600;-63
2021/06/21 12:21:55;;;;;;;7.27;1.70;;;29.50;46.30;;;;;;5015036;28;20183;-62
2021/06/21 12:24:32;;;;;;;3.80;1.50;;;29.20;45.70;;;;;;5028271;28;20691;-62
2021/06/21 12:27:05;;;;;;;2.90;1.40;;;29.30;47.00;;;;;;5003880;28;20167;-62
2021/06/21 12:29:36;;;;;;;2.60;1.47;;;29.40;46.10;;;;;;5026422;28;20171;-62
2021/06/21 12:32:12;;;;;;;3.40;1.60;;;29.60;45.50;;;;;;5025745;28;20175;-62
2021/06/21 12:34:48;;;;;;;4.37;1.73;;;29.80;45.90;;;;;;5029030;28;20280;-62
2021/06/21 12:37:35;;;;;;;4.33;1.80;;;30.00;47.10;;;;;;5029677;28;20254;-61
2021/06/21 12:40:15;;;;;;;1.93;1.20;;;30.30;46.80;;;;;;5029539;28;20746;-63
2021/06/21 12:42:42;;;;;;;4.78;1.58;;;30.50;45.30;;;;;;5026633;28;20192;-62
2021/06/21 12:45:20;;;;;;;2.85;1.98;;;30.70;45.10;;;;;;5030010;28;20214;-62
2021/06/21 12:47:50;;;;;;;3.95;1.83;;;30.70;43.60;;;;;;5028806;28;20171;-62
2021/06/21 12:50:19;;;;;;;4.47;1.77;;;30.80;44.40;;;;;;5022168;28;20182;-61
2021/06/21 12:52:47;;;;;;;3.40;1.55;;;30.80;44.50;;;;;;5028757;28;20174;-62
2021/06/21 12:55:16;;;;;;;1.60;1.50;;;30.90;44.00;;;;;;5015307;28;20196;-63
2021/06/21 12:57:46;;;;;;;4.30;1.38;;;30.80;43.90;;;;;;4999690;28;20176;-62
2021/06/21 13:00:13;;;;;;;2.38;1.80;;;30.80;43.60;;;;;;5028926;28;20190;-63